Flight Track Log - Related Links

Times and Time Zones

All times are in EDT time to prevent confusion due to time zone crossing. See the AWE621 flight status page for this flight to view local times or setup timezone preferences in your user account.

Time Position Orientation Groundspeed Altitude Reporting Facility
EDT Latitude Longitude Course Direction KTS MPH feet Rate Location/Type
Tue 07:53:48 AM 28.0233 -82.5433 261° West 175 201 1,600  Level Miami Center
Tue 07:54:24 AM 28.0667 -82.5500 352° North 222 255 2,300 2,133 Climbing Tampa TRACON
Tue 07:57:19 AM 28.0667 -82.7000 241° Southwest 291 335 9,100 2,145 Climbing Tampa TRACON
Tue 07:58:00 AM 27.6394 -83.2246 261° West  Level FlightAware
Tue 07:58:19 AM 28.0000 -82.7500 214° Southwest 313 360 10,700  Level Tampa TRACON
Tue 08:00:57 AM 27.7894 -82.9381 238° Southwest 364 419 13,400 1,340 Climbing Miami Center
Tue 08:05:02 AM 27.6228 -83.3003 290° West 388 447 19,700 1,471 Climbing Miami Center
Tue 08:06:03 AM 27.6428 -83.4319 280° West 422 486 20,900 1,174 Climbing Miami Center
Tue 08:08:06 AM 27.6658 -83.7050 276° West 437 503 23,300 1,207 Climbing Miami Center
Tue 08:09:00 AM 28.1081 -83.9435 290° West  Level Estimated
Tue 08:09:07 AM 27.6783 -83.8769 275° West 456 525 24,600  Level Miami Center
Tue 08:10:00 AM 28.1470 -84.0682 290° West  Level Estimated
Tue 08:10:09 AM 27.6911 -84.0203 276° West 458 527 25,800  Level Miami Center
Tue 08:11:10 AM 27.7019 -84.1647 275° West 459 528 26,900 1,024 Climbing Miami Center
Tue 08:12:12 AM 27.7153 -84.3094 276° West 462 532 27,900 878 Climbing Miami Center
Tue 08:13:13 AM 27.7269 -84.4561 275° West 465 535 28,700 1,073 Climbing Miami Center
Tue 08:14:15 AM 27.7453 -84.6025 278° West 471 542 30,100 1,024 Climbing Miami Center
Tue 08:15:16 AM 27.7783 -84.7419 285° West 462 532 30,800 1,033 Climbing Miami Center
Tue 08:16:17 AM 27.8069 -84.8831 283° West 462 532 32,200 1,220 Climbing Miami Center
Tue 08:17:19 AM 27.8397 -85.0353 284° West 450 518 33,300 829 Climbing Miami Center
Tue 08:18:20 AM 27.8689 -85.1736 283° West 450 518 33,900 341 Climbing Miami Center
Tue 08:19:22 AM 27.9014 -85.3078 285° West 445 512 34,000 60 Climbing Miami Center
Tue 08:20:00 AM 27.9278 -85.3956 289° West 448 516 34,000  Level Houston Center
Tue 08:20:33 AM 27.9528 -85.4861 287° West 446 513 34,000  Level Jacksonville Center
Tue 08:21:33 AM 27.9919 -85.6142 289° West 445 512 34,000  Level Jacksonville Center
Tue 08:22:33 AM 28.0328 -85.7517 289° West 445 512 34,000  Level Jacksonville Center
Tue 08:23:33 AM 28.0714 -85.8797 289° West 445 512 34,000 -50 Level Jacksonville Center
Tue 08:24:33 AM 28.1103 -86.0078 289° West 440 506 33,900  Descending Jacksonville Center
Tue 08:25:33 AM 28.1506 -86.1433 289° West 440 506 34,000 50 Climbing Jacksonville Center
Tue 08:26:33 AM 28.1892 -86.2717 289° West 448 516 34,000  Level Jacksonville Center
Tue 08:27:33 AM 28.2292 -86.4072 289° West 448 516 34,000  Level Jacksonville Center
Tue 08:28:33 AM 28.2692 -86.5406 289° West 433 498 34,000  Level Jacksonville Center
Tue 08:29:33 AM 28.3092 -86.6811 288° West 443 510 34,000  Level Jacksonville Center
Tue 08:30:33 AM 28.3447 -86.8097 287° West 443 510 34,000  Level Jacksonville Center
Tue 08:31:33 AM 28.3844 -86.9411 289° West 450 518 34,000 -50 Level Jacksonville Center
Tue 08:32:33 AM 28.4242 -87.0725 289° West 442 509 33,900  Descending Jacksonville Center
Tue 08:33:33 AM 28.4617 -87.1992 289° West 428 493 34,000 54 Climbing Jacksonville Center
Tue 08:34:25 AM 28.4906 -87.3017 288° West 439 505 34,000  Level Houston Center
Tue 08:35:27 AM 28.5278 -87.4333 288° West 439 505 34,000  Level Houston Center
Tue 08:36:29 AM 28.5650 -87.5644 288° West 439 505 34,000  Level Houston Center
Tue 08:37:31 AM 28.6033 -87.6958 288° West 439 505 34,000  Level Houston Center
Tue 08:38:33 AM 28.6475 -87.8542 288° West 438 504 34,000  Level Houston Center
Tue 08:39:35 AM 28.6850 -87.9839 288° West 437 503 34,000  Level Houston Center
Tue 08:40:37 AM 28.7178 -88.1050 287° West 437 503 34,000  Level Houston Center
Tue 08:41:39 AM 28.7558 -88.2361 288° West 437 503 34,000  Level Houston Center
Tue 08:42:41 AM 28.7989 -88.3950 287° West 437 503 34,000  Level Houston Center
Tue 08:43:43 AM 28.8361 -88.5256 288° West 437 503 34,000  Level Houston Center
Tue 08:44:45 AM 28.8708 -88.6564 287° West 436 502 34,000  Level Houston Center
Tue 08:45:47 AM 28.9017 -88.7897 285° West 435 501 34,000  Level Houston Center
Tue 08:46:49 AM 28.9261 -88.9256 282° West 436 502 34,000 -48 Level Houston Center
Tue 08:47:51 AM 28.9511 -89.0619 282° West 436 502 33,900  Descending Houston Center
Tue 08:48:53 AM 28.9803 -89.2247 282° West 436 502 34,000 48 Climbing Houston Center
Tue 08:49:55 AM 29.0061 -89.3597 282° West 436 502 34,000 -48 Level Houston Center
Tue 08:50:57 AM 29.0303 -89.4947 282° West 436 502 33,900 -48 Descending Houston Center
Tue 08:51:59 AM 29.0539 -89.6314 281° West 436 502 33,900 48 Level Houston Center
Tue 08:53:01 AM 29.0789 -89.7689 282° West 441 507 34,000 48 Climbing Houston Center
Tue 08:54:03 AM 29.1028 -89.9044 281° West 439 505 34,000  Level Houston Center
Tue 08:55:05 AM 29.1272 -90.0403 282° West 437 503 34,000  Level Houston Center
Tue 08:56:07 AM 29.1553 -90.2014 281° West 434 499 34,000 -48 Level Houston Center
Tue 08:57:09 AM 29.1794 -90.3344 282° West 430 495 33,900  Descending Houston Center
Tue 08:58:11 AM 29.2017 -90.4692 281° West 430 495 34,000 48 Climbing Houston Center
Tue 08:59:13 AM 29.2269 -90.6039 282° West 430 495 34,000  Level Houston Center
Tue 09:01:17 AM 29.2731 -90.8739 281° West 433 498 34,000  Level Houston Center
Tue 09:02:19 AM 29.2997 -91.0353 281° West 432 497 34,000  Level Houston Center
Tue 09:03:21 AM 29.3225 -91.1692 281° West 432 497 34,000 -48 Level Houston Center
Tue 09:04:23 AM 29.3456 -91.3011 281° West 427 491 33,900  Descending Houston Center
Tue 09:05:25 AM 29.3681 -91.4347 281° West 427 491 34,000 48 Climbing Houston Center
Tue 09:06:27 AM 29.3903 -91.5686 281° West 427 491 34,000  Level Houston Center
Tue 09:07:29 AM 29.4147 -91.7239 280° West 426 490 34,000  Level Houston Center
Tue 09:08:31 AM 29.4425 -91.8550 284° West 426 490 34,000  Level Houston Center
Tue 09:09:34 AM 29.4728 -91.9869 285° West 426 490 34,000  Level Houston Center
Tue 09:10:36 AM 29.5011 -92.1189 284° West 426 490 34,000  Level Houston Center
Tue 09:11:38 AM 29.5303 -92.2497 284° West 426 490 34,000 -48 Level Houston Center
Tue 09:12:40 AM 29.5589 -92.3814 284° West 426 490 33,900  Descending Houston Center
Tue 09:13:42 AM 29.5922 -92.5392 284° West 426 490 34,000 48 Climbing Houston Center
Tue 09:14:44 AM 29.6211 -92.6714 284° West 426 490 34,000  Level Houston Center
Tue 09:15:46 AM 29.6500 -92.8042 284° West 426 490 34,000  Level Houston Center
Tue 09:16:48 AM 29.6778 -92.9369 284° West 426 490 34,000  Level Houston Center
Tue 09:17:50 AM 29.7058 -93.0703 284° West 426 490 34,000  Level Houston Center
Tue 09:18:53 AM 29.7342 -93.2031 284° West 426 490 34,000  Level Houston Center
Tue 09:19:55 AM 29.7672 -93.3622 283° West 427 491 34,000  Level Houston Center
Tue 09:20:57 AM 29.7958 -93.4964 284° West 427 491 34,000  Level Houston Center
Tue 09:21:59 AM 29.8247 -93.6311 284° West 428 493 34,000  Level Houston Center
Tue 09:23:01 AM 29.8519 -93.7650 283° West 428 493 34,000  Level Houston Center
Tue 09:24:03 AM 29.8794 -93.9000 283° West 428 493 34,000  Level Houston Center
Tue 09:25:05 AM 29.9072 -94.0347 283° West 429 494 34,000  Level Houston Center
Tue 09:26:08 AM 29.9344 -94.1686 283° West 429 494 34,000  Level Houston Center
Tue 09:27:10 AM 29.9667 -94.3286 283° West 429 494 34,000 -48 Level Houston Center
Tue 09:28:12 AM 29.9942 -94.4606 284° West 427 491 33,900  Descending Houston Center
Tue 09:29:14 AM 30.0175 -94.5817 283° West 425 489 34,000 48 Climbing Houston Center
Tue 09:30:16 AM 30.0481 -94.7400 283° West 425 489 34,000  Level Houston Center
Tue 09:31:18 AM 30.0744 -94.8728 283° West 425 489 34,000  Level Houston Center
Tue 09:32:21 AM 30.1000 -95.0036 283° West 425 489 34,000  Level Houston Center
Tue 09:33:23 AM 30.1256 -95.1358 283° West 425 489 34,000  Level Houston Center
Tue 09:34:25 AM 30.1511 -95.2678 283° West 425 489 34,000  Level Houston Center
Tue 09:35:27 AM 30.1814 -95.4269 282° West 424 488 34,000  Level Houston Center
Tue 09:36:29 AM 30.2061 -95.5597 282° West 425 489 34,000  Level Houston Center
Tue 09:37:31 AM 30.2319 -95.6914 283° West 424 488 34,000  Level Houston Center
Tue 09:38:34 AM 30.2569 -95.8242 282° West 424 488 34,000  Level Houston Center
Tue 09:39:36 AM 30.2819 -95.9575 282° West 424 488 34,000  Level Houston Center
Tue 09:40:38 AM 30.3094 -96.1044 282° West 425 489 34,000  Level Houston Center
Tue 09:41:40 AM 30.3344 -96.2389 282° West 425 489 34,000  Level Houston Center
Tue 09:42:42 AM 30.3597 -96.3733 282° West 427 491 34,000  Level Houston Center
Tue 09:43:45 AM 30.3881 -96.5364 281° West 430 495 34,000  Level Houston Center
Tue 09:44:47 AM 30.4128 -96.6711 282° West 429 494 34,000  Level Houston Center
Tue 09:45:49 AM 30.4367 -96.8067 282° West 430 495 34,000  Level Houston Center
Tue 09:46:51 AM 30.4619 -96.9422 282° West 430 495 34,000  Level Houston Center
Tue 09:47:53 AM 30.4853 -97.0794 281° West 430 495 34,000  Level Houston Center
Tue 09:48:55 AM 30.5100 -97.2150 282° West 430 495 34,000  Level Houston Center
Tue 09:49:58 AM 30.5392 -97.3778 282° West 429 494 34,000  Level Houston Center
Tue 09:51:00 AM 30.5622 -97.5136 281° West 429 494 34,000  Level Houston Center
Tue 09:52:02 AM 30.5861 -97.6494 282° West 429 494 34,000  Level Houston Center
Tue 09:53:04 AM 30.6094 -97.7839 281° West 427 491 34,000  Level Houston Center
Tue 09:54:06 AM 30.6322 -97.9178 281° West 425 489 34,000  Level Houston Center
Tue 09:55:09 AM 30.6558 -98.0531 282° West 425 489 34,000  Level Houston Center
Tue 09:56:11 AM 30.6778 -98.1878 281° West 425 489 34,000  Level Houston Center
Tue 09:57:13 AM 30.7061 -98.3506 281° West 425 489 34,000  Level Houston Center
Tue 09:58:15 AM 30.7289 -98.4850 281° West 425 489 34,000  Level Houston Center
Tue 09:59:17 AM 30.7511 -98.6194 281° West 425 489 34,000  Level Houston Center
Tue 10:00:19 AM 30.7728 -98.7533 281° West 425 489 34,000  Level Houston Center
Tue 10:01:22 AM 30.7944 -98.8869 281° West 422 486 34,000  Level Houston Center
Tue 10:02:24 AM 30.8208 -99.0458 281° West 420 483 34,000 -48 Level Houston Center
Tue 10:03:26 AM 30.8419 -99.1753 281° West 420 483 33,900 -48 Descending Houston Center
Tue 10:04:28 AM 30.8625 -99.3072 280° West 419 482 33,900 48 Level Houston Center
Tue 10:05:30 AM 30.8844 -99.4406 281° West 419 482 34,000 48 Climbing Houston Center
Tue 10:06:33 AM 30.9058 -99.5753 281° West 421 484 34,000  Level Houston Center
Tue 10:07:35 AM 30.9308 -99.7353 280° West 421 484 34,000  Level Houston Center
Tue 10:08:37 AM 30.9508 -99.8683 280° West 420 483 34,000 -48 Level Houston Center
Tue 10:09:39 AM 30.9714 -99.9986 280° West 418 481 33,900 -48 Descending Houston Center
Tue 10:10:41 AM 30.9911 -100.1319 280° West 418 481 33,900 48 Level Houston Center
Tue 10:11:43 AM 31.0111 -100.2633 280° West 418 481 34,000 48 Climbing Houston Center
Tue 10:12:46 AM 31.0356 -100.4214 280° West 417 480 34,000  Level Houston Center
Tue 10:13:48 AM 31.0556 -100.5547 280° West 419 482 34,000  Level Houston Center
Tue 10:14:50 AM 31.0758 -100.6881 280° West 421 484 34,000  Level Houston Center
Tue 10:15:52 AM 31.0947 -100.8231 279° West 422 486 34,000  Level Houston Center
Tue 10:16:54 AM 31.1147 -100.9578 280° West 423 487 34,000  Level Houston Center
Tue 10:17:57 AM 31.1392 -101.1194 280° West 423 487 34,000 -48 Level Houston Center
Tue 10:18:59 AM 31.1572 -101.2522 279° West 421 484 33,900 -48 Descending Houston Center
Tue 10:20:01 AM 31.1753 -101.3814 279° West 420 483 33,900 48 Level Houston Center
Tue 10:21:03 AM 31.1958 -101.5139 280° West 420 483 34,000 48 Climbing Houston Center
Tue 10:22:05 AM 31.2183 -101.6742 279° West 419 482 34,000 -48 Level Houston Center
Tue 10:23:07 AM 31.2358 -101.8072 279° West 419 482 33,900  Descending Houston Center
Tue 10:23:42 AM 31.2475 -101.8853 280° West 417 480 34,000 62 Climbing Albuquerque Center
Tue 10:24:44 AM 31.2664 -102.0214 279° West 417 480 34,000  Level Albuquerque Center
Tue 10:25:46 AM 31.2853 -102.1544 279° West 417 480 34,000  Level Albuquerque Center
Tue 10:26:48 AM 31.3022 -102.2925 278° West 418 481 34,000  Level Albuquerque Center
Tue 10:27:50 AM 31.3206 -102.4306 279° West 427 491 34,000  Level Albuquerque Center
Tue 10:28:52 AM 31.3397 -102.5753 279° West 421 484 34,000  Level Albuquerque Center
Tue 10:30:23 AM 31.3636 -102.7619 279° West 420 483 34,000  Level Houston Center
Tue 10:30:56 AM 31.3747 -102.8439 279° West 421 484 34,000  Level Albuquerque Center
Tue 10:31:58 AM 31.3711 -102.9764 268° West 413 475 34,000  Level Albuquerque Center
Tue 10:33:00 AM 31.2856 -103.0994 231° Southwest 413 475 34,000 -48 Level Albuquerque Center
Tue 10:34:02 AM 31.2061 -103.1939 225° Southwest 412 474 33,900 -48 Descending Albuquerque Center
Tue 10:35:04 AM 31.1261 -103.2883 225° Southwest 411 473 33,900 48 Level Albuquerque Center
Tue 10:36:06 AM 31.0467 -103.3831 226° Southwest 411 473 34,000 48 Climbing Albuquerque Center
Tue 10:37:08 AM 30.9675 -103.4781 226° Southwest 411 473 34,000  Level Albuquerque Center
Tue 10:38:10 AM 30.8900 -103.5758 227° Southwest 411 473 34,000  Level Albuquerque Center
Tue 10:39:12 AM 30.8892 -103.7347 270° West 425 489 34,000  Level Albuquerque Center
Tue 10:40:14 AM 30.9361 -103.8600 294° West 425 489 34,000 -48 Level Albuquerque Center
Tue 10:41:16 AM 30.9819 -103.9836 293° West 421 484 33,900 -48 Descending Albuquerque Center
Tue 10:42:18 AM 31.0275 -104.1053 294° West 417 480 33,900 48 Level Albuquerque Center
Tue 10:43:20 AM 31.0728 -104.2289 293° West 416 479 34,000 48 Climbing Albuquerque Center
Tue 10:44:23 AM 31.1286 -104.3772 294° West 416 479 34,000  Level Albuquerque Center
Tue 10:45:25 AM 31.1750 -104.5008 294° West 415 478 34,000  Level Albuquerque Center
Tue 10:46:27 AM 31.2181 -104.6233 292° West 415 478 34,000  Level Albuquerque Center
Tue 10:47:29 AM 31.2689 -104.7472 296° West 418 481 34,000  Level Albuquerque Center
Tue 10:48:31 AM 31.3175 -104.8692 295° West 418 481 34,000  Level Albuquerque Center
Tue 10:49:33 AM 31.3569 -104.9931 290° West 413 475 34,000 -48 Level Albuquerque Center
Tue 10:50:35 AM 31.4131 -105.1392 294° West 412 474 33,900  Descending Albuquerque Center
Tue 10:51:37 AM 31.4589 -105.2614 294° West 412 474 34,000 48 Climbing Albuquerque Center
Tue 10:52:39 AM 31.4989 -105.3961 289° West 412 474 34,000  Level Albuquerque Center
Tue 10:53:41 AM 31.5450 -105.5194 294° West 413 475 34,000  Level Albuquerque Center
Tue 10:54:43 AM 31.5922 -105.6511 293° West 410 472 34,000  Level Albuquerque Center
Tue 10:55:45 AM 31.6364 -105.7739 293° West 410 472 34,000  Level Albuquerque Center
Tue 10:56:48 AM 31.6803 -105.8969 293° West 409 471 34,000  Level Albuquerque Center
Tue 10:57:50 AM 31.7256 -106.0272 292° West 405 466 34,000  Level Albuquerque Center
Tue 10:58:52 AM 31.7692 -106.1500 293° West 406 467 34,000  Level Albuquerque Center
Tue 10:59:54 AM 31.8106 -106.2636 293° West 406 467 34,000  Level Albuquerque Center
Tue 11:00:56 AM 31.8361 -106.3922 283° West 407 468 34,000  Level Albuquerque Center
Tue 11:01:58 AM 31.8622 -106.5478 281° West 406 467 34,000  Level Albuquerque Center
Tue 11:03:00 AM 31.8819 -106.6786 280° West 405 466 34,000  Level Albuquerque Center
Tue 11:04:02 AM 31.9031 -106.8069 281° West 403 464 34,000  Level Albuquerque Center
Tue 11:05:04 AM 31.9225 -106.9344 280° West 399 459 34,000  Level Albuquerque Center
Tue 11:06:06 AM 31.9433 -107.0647 281° West 399 459 34,000  Level Albuquerque Center
Tue 11:07:08 AM 31.9633 -107.1944 280° West 399 459 34,000  Level Albuquerque Center
Tue 11:08:11 AM 31.9831 -107.3256 280° West 400 460 34,000  Level Albuquerque Center
Tue 11:09:13 AM 32.0067 -107.4822 280° West 401 461 34,000  Level Albuquerque Center
Tue 11:10:15 AM 32.0269 -107.6122 280° West 402 463 34,000 -48 Level Albuquerque Center
Tue 11:11:17 AM 32.0467 -107.7428 280° West 402 463 33,900  Descending Albuquerque Center
Tue 11:12:19 AM 32.0664 -107.8728 280° West 402 463 34,000 48 Climbing Albuquerque Center
Tue 11:13:21 AM 32.0858 -108.0036 280° West 402 463 34,000  Level Albuquerque Center
Tue 11:14:23 AM 32.1058 -108.1344 280° West 402 463 34,000 -48 Level Albuquerque Center
Tue 11:15:25 AM 32.1297 -108.2889 280° West 403 464 33,900 -48 Descending Albuquerque Center
Tue 11:16:27 AM 32.1469 -108.4181 279° West 402 463 33,900 48 Level Albuquerque Center
Tue 11:17:29 AM 32.1644 -108.5339 280° West 400 460 34,000 48 Climbing Albuquerque Center
Tue 11:18:31 AM 32.1836 -108.6642 280° West 400 460 34,000  Level Albuquerque Center
Tue 11:19:33 AM 32.2053 -108.8175 280° West 400 460 34,000  Level Albuquerque Center
Tue 11:20:36 AM 32.2231 -108.9461 279° West 399 459 34,000  Level Albuquerque Center
Tue 11:21:38 AM 32.2411 -109.0747 279° West 397 457 34,000  Level Albuquerque Center
Tue 11:22:40 AM 32.2597 -109.2025 280° West 397 457 34,000  Level Albuquerque Center
Tue 11:23:42 AM 32.2839 -109.3300 283° West 397 457 34,000  Level Albuquerque Center
Tue 11:24:44 AM 32.3150 -109.4558 286° West 396 456 34,000  Level Albuquerque Center
Tue 11:25:46 AM 32.3519 -109.6064 286° West 397 457 34,000  Level Albuquerque Center
Tue 11:26:48 AM 32.3814 -109.7325 285° West 397 457 34,000  Level Albuquerque Center
Tue 11:27:50 AM 32.4111 -109.8586 286° West 397 457 34,000 -242 Level Albuquerque Center
Tue 11:28:52 AM 32.4439 -109.9881 287° West 402 463 33,500 -774 Descending Albuquerque Center
Tue 11:29:54 AM 32.4747 -110.1169 286° West 403 464 32,400 -1,597 Descending Albuquerque Center
Tue 11:30:56 AM 32.5061 -110.2472 286° West 407 468 30,200 -2,419 Descending Albuquerque Center
Tue 11:31:58 AM 32.5422 -110.3997 286° West 407 468 27,400 -2,419 Descending Albuquerque Center
Tue 11:33:00 AM 32.5719 -110.5233 286° West 397 457 25,200 -1,920 Descending Albuquerque Center
Tue 11:34:03 AM 32.6147 -110.6367 294° West 389 448 23,400 -1,488 Descending Albuquerque Center
Tue 11:35:05 AM 32.6692 -110.7394 302° West 371 427 22,100 -1,210 Descending Albuquerque Center
Tue 11:36:07 AM 32.7222 -110.8383 303° West 361 415 20,900 -1,161 Descending Albuquerque Center
Tue 11:37:09 AM 32.7756 -110.9364 303° West 357 411 19,700 -1,306 Descending Albuquerque Center
Tue 11:38:11 AM 32.8361 -111.0569 301° West 357 411 18,200 -1,306 Descending Albuquerque Center
Tue 11:39:13 AM 32.8850 -111.1517 302° West 344 396 17,000 -1,161 Descending Albuquerque Center
Tue 11:40:15 AM 32.9297 -111.2436 300° West 327 376 15,800 -1,065 Descending Albuquerque Center
Tue 11:41:17 AM 32.9714 -111.3372 298° West 321 369 14,800 -1,065 Descending Albuquerque Center
Tue 11:42:19 AM 33.0169 -111.4317 300° West 324 373 13,600 -1,113 Descending Albuquerque Center
Tue 11:43:21 AM 33.0656 -111.5258 302° West 332 382 12,500 -1,104 Descending Albuquerque Center
Tue 11:44:24 AM 33.1219 -111.6383 301° West 331 381 11,300 -1,008 Descending Albuquerque Center
Tue 11:45:26 AM 33.1692 -111.7311 301° West 331 381 10,400 -774 Descending Albuquerque Center
Tue 11:46:28 AM 33.2133 -111.8178 301° West 306 352 9,700 -581 Descending Albuquerque Center
Tue 11:47:30 AM 33.2536 -111.8983 301° West 289 333 9,200 -484 Descending Albuquerque Center
Tue 11:48:32 AM 33.2906 -111.9703 302° West 258 297 8,700 -774 Descending Albuquerque Center
Tue 11:49:34 AM 33.3239 -112.0381 300° West 241 277 7,600 -1,113 Descending Albuquerque Center
Tue 11:50:36 AM 33.3431 -112.1081 288° West 230 265 6,400 -1,210 Descending Albuquerque Center
Tue 11:51:38 AM 33.3542 -112.1944 279° West 222 255 5,100 -726 Descending Albuquerque Center
Tue 11:52:40 AM 33.3969 -112.2353 321° Northwest 230 265 4,900 -581 Descending Albuquerque Center
Tue 11:53:42 AM 33.4300 -112.1800 54° Northeast 214 246 3,900 -1,016 Descending Albuquerque Center
Tue 11:54:44 AM 33.4289 -112.1147 91° East 196 226 2,800 -1,263 Descending Albuquerque Center
Tue 11:55:17 AM 33.4333 -112.0833 80° East 165 190 1,900 -816 Descending Phoenix TRACON
Tue 11:56:49 AM 33.4292 -112.0064 94° East 153 176 1,100 -522 Descending Albuquerque Center

Login

Don't have an account? Register now (free) for customized features, flight alerts, and more!